sensor_id;sensor_type;location;lat;lon;timestamp;pressure;altitude;pressure_sealevel;temperature;humidity
58092;BME280;43896;48.178;11.578;2022-09-09T00:00:38;95669.75;;;18.35;62.05
58092;BME280;43896;48.178;11.578;2022-09-09T00:03:22;95649.53;;;18.21;61.58
58092;BME280;43896;48.178;11.578;2022-09-09T00:06:10;95671.44;;;18.23;61.68
58092;BME280;43896;48.178;11.578;2022-09-09T00:08:54;95679.31;;;17.91;63.04
58092;BME280;43896;48.178;11.578;2022-09-09T00:11:48;95673.72;;;18.13;62.78
58092;BME280;43896;48.178;11.578;2022-09-09T00:17:26;95640.88;;;17.54;64.84
58092;BME280;43896;48.178;11.578;2022-09-09T00:22:36;95586.50;;;17.03;65.24
58092;BME280;43896;48.178;11.578;2022-09-09T00:25:15;95615.09;;;17.48;64.22
58092;BME280;43896;48.178;11.578;2022-09-09T00:27:48;95628.78;;;17.65;63.66
58092;BME280;43896;48.178;11.578;2022-09-09T00:30:19;95622.00;;;17.69;63.25
58092;BME280;43896;48.178;11.578;2022-09-09T00:32:48;95607.50;;;17.71;63.26
58092;BME280;43896;48.178;11.578;2022-09-09T00:37:54;95647.72;;;18.08;64.28
58092;BME280;43896;48.178;11.578;2022-09-09T00:40:26;95650.38;;;18.08;63.45
58092;BME280;43896;48.178;11.578;2022-09-09T00:43:10;95646.53;;;17.91;63.48
58092;BME280;43896;48.178;11.578;2022-09-09T00:54:12;95658.63;;;17.93;64.13
58092;BME280;43896;48.178;11.578;2022-09-09T00:59:31;95660.28;;;17.68;65.17
58092;BME280;43896;48.178;11.578;2022-09-09T01:02:07;95666.41;;;17.88;64.14
58092;BME280;43896;48.178;11.578;2022-09-09T01:04:37;95647.78;;;17.88;63.53
58092;BME280;43896;48.178;11.578;2022-09-09T01:07:16;95624.47;;;17.63;63.71
58092;BME280;43896;48.178;11.578;2022-09-09T01:09:58;95656.97;;;17.79;63.97
58092;BME280;43896;48.178;11.578;2022-09-09T01:14:56;95656.16;;;17.85;63.73
58092;BME280;43896;48.178;11.578;2022-09-09T01:17:36;95665.78;;;17.93;63.53
58092;BME280;43896;48.178;11.578;2022-09-09T01:20:17;95632.44;;;17.77;63.97
58092;BME280;43896;48.178;11.578;2022-09-09T01:27:56;95663.53;;;17.96;63.86
58092;BME280;43896;48.178;11.578;2022-09-09T01:30:24;95635.28;;;17.82;63.73
58092;BME280;43896;48.178;11.578;2022-09-09T01:32:54;95661.47;;;17.98;63.92
58092;BME280;43896;48.178;11.578;2022-09-09T01:35:37;95664.16;;;17.98;64.66
58092;BME280;43896;48.178;11.578;2022-09-09T01:38:03;95640.41;;;17.84;63.82
58092;BME280;43896;48.178;11.578;2022-09-09T01:40:29;95632.22;;;17.78;64.00
58092;BME280;43896;48.178;11.578;2022-09-09T01:42:54;95617.09;;;17.72;64.18
58092;BME280;43896;48.178;11.578;2022-09-09T01:45:21;95635.97;;;17.57;65.24
58092;BME280;43896;48.178;11.578;2022-09-09T01:47:47;95659.03;;;17.84;65.13
58092;BME280;43896;48.178;11.578;2022-09-09T01:50:15;95634.91;;;17.72;64.45
58092;BME280;43896;48.178;11.578;2022-09-09T01:52:42;95651.72;;;17.59;65.49
58092;BME280;43896;48.178;11.578;2022-09-09T01:55:09;95631.25;;;17.33;66.61
58092;BME280;43896;48.178;11.578;2022-09-09T02:00:29;95658.84;;;17.58;66.19
58092;BME280;43896;48.178;11.578;2022-09-09T02:05:41;95653.09;;;17.75;65.70
58092;BME280;43896;48.178;11.578;2022-09-09T02:08:33;95633.72;;;17.48;65.41
58092;BME280;43896;48.178;11.578;2022-09-09T02:11:07;95660.69;;;17.65;65.62
58092;BME280;43896;48.178;11.578;2022-09-09T02:13:36;95642.28;;;17.50;66.00
58092;BME280;43896;48.178;11.578;2022-09-09T02:16:07;95618.56;;;17.48;65.57
58092;BME280;43896;48.178;11.578;2022-09-09T02:18:42;95647.41;;;17.65;65.65
58092;BME280;43896;48.178;11.578;2022-09-09T02:21:12;95610.44;;;17.16;66.40
58092;BME280;43896;48.178;11.578;2022-09-09T02:23:40;95648.44;;;17.23;66.96
58092;BME280;43896;48.178;11.578;2022-09-09T02:26:09;95598.13;;;16.82;66.85
58092;BME280;43896;48.178;11.578;2022-09-09T02:28:36;95632.44;;;16.83;67.96
58092;BME280;43896;48.178;11.578;2022-09-09T02:31:03;95627.38;;;16.89;67.51
58092;BME280;43896;48.178;11.578;2022-09-09T02:33:33;95622.66;;;17.17;66.90
58092;BME280;43896;48.178;11.578;2022-09-09T02:36:01;95594.69;;;17.08;66.40
58092;BME280;43896;48.178;11.578;2022-09-09T02:38:29;95612.44;;;17.34;66.15
58092;BME280;43896;48.178;11.578;2022-09-09T02:40:58;95646.19;;;17.40;66.88
58092;BME280;43896;48.178;11.578;2022-09-09T02:43:24;95638.63;;;17.04;67.70
58092;BME280;43896;48.178;11.578;2022-09-09T02:48:26;95613.50;;;17.27;66.79
58092;BME280;43896;48.178;11.578;2022-09-09T02:56:14;95644.97;;;17.23;66.50
58092;BME280;43896;48.178;11.578;2022-09-09T02:58:40;95624.06;;;16.80;67.59
58092;BME280;43896;48.178;11.578;2022-09-09T03:01:06;95633.72;;;17.01;66.44
58092;BME280;43896;48.178;11.578;2022-09-09T03:03:34;95591.63;;;16.98;65.62
58092;BME280;43896;48.178;11.578;2022-09-09T03:06:00;95645.16;;;17.08;66.97
58092;BME280;43896;48.178;11.578;2022-09-09T03:08:25;95568.94;;;16.89;66.12
58092;BME280;43896;48.178;11.578;2022-09-09T03:10:54;95605.06;;;16.76;66.96
58092;BME280;43896;48.178;11.578;2022-09-09T03:13:20;95572.78;;;16.79;66.62
58092;BME280;43896;48.178;11.578;2022-09-09T03:15:45;95617.38;;;16.91;66.57
58092;BME280;43896;48.178;11.578;2022-09-09T03:18:10;95614.25;;;16.74;67.80
58092;BME280;43896;48.178;11.578;2022-09-09T03:20:36;95624.63;;;16.55;67.94
58092;BME280;43896;48.178;11.578;2022-09-09T03:23:01;95619.53;;;16.67;67.45
58092;BME280;43896;48.178;11.578;2022-09-09T03:25:27;95640.41;;;16.83;67.54
58092;BME280;43896;48.178;11.578;2022-09-09T03:27:54;95625.25;;;16.64;67.76
58092;BME280;43896;48.178;11.578;2022-09-09T03:30:24;95614.44;;;16.65;67.93
58092;BME280;43896;48.178;11.578;2022-09-09T03:32:50;95609.53;;;16.76;67.36
58092;BME280;43896;48.178;11.578;2022-09-09T03:35:15;95623.81;;;16.61;68.45
58092;BME280;43896;48.178;11.578;2022-09-09T03:37:41;95609.72;;;16.47;68.49
58092;BME280;43896;48.178;11.578;2022-09-09T03:40:07;95615.69;;;16.76;67.78
58092;BME280;43896;48.178;11.578;2022-09-09T03:42:35;95631.19;;;16.79;68.15
58092;BME280;43896;48.178;11.578;2022-09-09T03:45:02;95613.84;;;16.77;67.81
58092;BME280;43896;48.178;11.578;2022-09-09T03:47:28;95620.84;;;16.98;67.35
58092;BME280;43896;48.178;11.578;2022-09-09T03:49:53;95603.44;;;16.75;67.94
58092;BME280;43896;48.178;11.578;2022-09-09T03:52:19;95606.69;;;16.71;67.97
58092;BME280;43896;48.178;11.578;2022-09-09T03:54:45;95605.50;;;17.00;67.46
58092;BME280;43896;48.178;11.578;2022-09-09T03:57:10;95570.31;;;16.58;67.56
58092;BME280;43896;48.178;11.578;2022-09-09T03:59:35;95614.09;;;17.09;67.17
58092;BME280;43896;48.178;11.578;2022-09-09T04:02:01;95573.00;;;16.84;67.18
58092;BME280;43896;48.178;11.578;2022-09-09T04:04:27;95590.00;;;16.97;67.23
58092;BME280;43896;48.178;11.578;2022-09-09T04:06:53;95577.94;;;16.94;67.44
58092;BME280;43896;48.178;11.578;2022-09-09T04:09:18;95618.59;;;17.35;66.80
58092;BME280;43896;48.178;11.578;2022-09-09T04:11:43;95558.53;;;16.94;66.63
58092;BME280;43896;48.178;11.578;2022-09-09T04:14:09;95610.19;;;17.51;65.90
58092;BME280;43896;48.178;11.578;2022-09-09T04:16:34;95542.59;;;17.07;66.01
58092;BME280;43896;48.178;11.578;2022-09-09T04:19:02;95612.03;;;17.24;66.56
58092;BME280;43896;48.178;11.578;2022-09-09T04:21:29;95606.34;;;16.94;67.34
58092;BME280;43896;48.178;11.578;2022-09-09T04:23:55;95554.63;;;16.76;67.56
58092;BME280;43896;48.178;11.578;2022-09-09T04:26:20;95584.69;;;16.97;67.05
58092;BME280;43896;48.178;11.578;2022-09-09T04:28:45;95558.94;;;16.97;66.19
58092;BME280;43896;48.178;11.578;2022-09-09T04:31:19;95572.22;;;16.97;66.15
58092;BME280;43896;48.178;11.578;2022-09-09T04:33:46;95538.03;;;16.47;67.51
58092;BME280;43896;48.178;11.578;2022-09-09T04:36:12;95555.66;;;17.02;66.18
58092;BME280;43896;48.178;11.578;2022-09-09T04:38:37;95565.06;;;16.98;66.13
58092;BME280;43896;48.178;11.578;2022-09-09T04:41:03;95591.78;;;17.43;66.03
58092;BME280;43896;48.178;11.578;2022-09-09T04:43:28;95589.56;;;17.40;65.13
58092;BME280;43896;48.178;11.578;2022-09-09T04:45:56;95556.47;;;16.96;66.52
58092;BME280;43896;48.178;11.578;2022-09-09T04:48:22;95547.00;;;16.46;67.67
58092;BME280;43896;48.178;11.578;2022-09-09T04:51:05;95569.09;;;16.74;67.25
58092;BME280;43896;48.178;11.578;2022-09-09T04:53:31;95559.94;;;16.76;66.96
58092;BME280;43896;48.178;11.578;2022-09-09T04:56:05;95538.06;;;16.54;67.06
58092;BME280;43896;48.178;11.578;2022-09-09T04:58:31;95602.44;;;17.10;67.22
58092;BME280;43896;48.178;11.578;2022-09-09T05:01:06;95568.72;;;16.83;67.69
58092;BME280;43896;48.178;11.578;2022-09-09T05:03:33;95571.13;;;16.65;68.67
58092;BME280;43896;48.178;11.578;2022-09-09T05:06:03;95595.31;;;16.90;68.17
58092;BME280;43896;48.178;11.578;2022-09-09T05:08:29;95592.03;;;17.28;66.80
58092;BME280;43896;48.178;11.578;2022-09-09T05:10:54;95532.78;;;17.01;65.99
58092;BME280;43896;48.178;11.578;2022-09-09T05:13:20;95581.59;;;17.13;66.25
58092;BME280;43896;48.178;11.578;2022-09-09T05:15:53;95612.81;;;16.78;69.38
58092;BME280;43896;48.178;11.578;2022-09-09T05:18:18;95527.09;;;15.96;70.04
58092;BME280;43896;48.178;11.578;2022-09-09T05:20:44;95564.91;;;16.11;70.17
58092;BME280;43896;48.178;11.578;2022-09-09T05:23:09;95590.06;;;16.28;70.19
58092;BME280;43896;48.178;11.578;2022-09-09T05:25:37;95557.53;;;16.06;69.89
58092;BME280;43896;48.178;11.578;2022-09-09T05:28:02;95569.31;;;15.90;71.02
58092;BME280;43896;48.178;11.578;2022-09-09T05:30:27;95540.81;;;15.64;70.71
58092;BME280;43896;48.178;11.578;2022-09-09T05:32:56;95586.06;;;15.98;70.79
58092;BME280;43896;48.178;11.578;2022-09-09T05:35:28;95629.56;;;16.72;69.32
58092;BME280;43896;48.178;11.578;2022-09-09T05:37:59;95562.13;;;16.46;68.56
58092;BME280;43896;48.178;11.578;2022-09-09T05:40:24;95628.31;;;16.61;69.80
58092;BME280;43896;48.178;11.578;2022-09-09T05:42:50;95578.81;;;16.33;69.10
58092;BME280;43896;48.178;11.578;2022-09-09T05:45:15;95596.19;;;16.36;69.24
58092;BME280;43896;48.178;11.578;2022-09-09T05:47:40;95584.63;;;16.70;67.61
58092;BME280;43896;48.178;11.578;2022-09-09T05:50:06;95595.25;;;16.70;67.62
58092;BME280;43896;48.178;11.578;2022-09-09T05:52:31;95580.56;;;16.87;66.86
58092;BME280;43896;48.178;11.578;2022-09-09T05:54:57;95576.69;;;17.03;66.33
58092;BME280;43896;48.178;11.578;2022-09-09T05:57:25;95631.84;;;17.48;65.96
58092;BME280;43896;48.178;11.578;2022-09-09T05:59:50;95598.53;;;17.39;66.45
58092;BME280;43896;48.178;11.578;2022-09-09T06:02:15;95614.50;;;17.25;67.18
58092;BME280;43896;48.178;11.578;2022-09-09T06:04:41;95624.72;;;17.15;67.60
58092;BME280;43896;48.178;11.578;2022-09-09T06:07:07;95600.59;;;17.10;67.56
58092;BME280;43896;48.178;11.578;2022-09-09T06:09:32;95625.34;;;17.37;67.77
58092;BME280;43896;48.178;11.578;2022-09-09T06:11:57;95634.34;;;17.36;67.07
58092;BME280;43896;48.178;11.578;2022-09-09T06:14:23;95646.41;;;17.46;66.61
58092;BME280;43896;48.178;11.578;2022-09-09T06:16:50;95588.75;;;17.26;64.99
58092;BME280;43896;48.178;11.578;2022-09-09T06:19:15;95605.50;;;17.00;66.19
58092;BME280;43896;48.178;11.578;2022-09-09T06:21:41;95634.94;;;17.05;66.26
58092;BME280;43896;48.178;11.578;2022-09-09T06:24:07;95578.50;;;16.63;66.76
58092;BME280;43896;48.178;11.578;2022-09-09T06:26:38;95591.00;;;17.02;65.88
58092;BME280;43896;48.178;11.578;2022-09-09T06:29:05;95614.09;;;17.29;65.59
58092;BME280;43896;48.178;11.578;2022-09-09T06:31:33;95592.03;;;16.95;66.91
58092;BME280;43896;48.178;11.578;2022-09-09T06:33:59;95638.41;;;17.12;66.35
58092;BME280;43896;48.178;11.578;2022-09-09T06:36:30;95607.28;;;16.73;67.48
58092;BME280;43896;48.178;11.578;2022-09-09T06:38:56;95631.28;;;17.06;66.74
58092;BME280;43896;48.178;11.578;2022-09-09T06:41:25;95628.81;;;17.24;66.02
58092;BME280;43896;48.178;11.578;2022-09-09T06:43:52;95601.63;;;17.36;65.27
58092;BME280;43896;48.178;11.578;2022-09-09T06:46:22;95629.44;;;17.47;65.26
58092;BME280;43896;48.178;11.578;2022-09-09T06:48:48;95617.78;;;17.21;66.21
58092;BME280;43896;48.178;11.578;2022-09-09T06:51:19;95621.06;;;17.16;66.19
58092;BME280;43896;48.178;11.578;2022-09-09T06:53:49;95623.47;;;17.65;64.74
58092;BME280;43896;48.178;11.578;2022-09-09T06:56:29;95598.31;;;17.54;64.65
58092;BME280;43896;48.178;11.578;2022-09-09T06:58:56;95548.25;;;17.24;64.42
58092;BME280;43896;48.178;11.578;2022-09-09T07:01:25;95654.97;;;17.54;65.45
58092;BME280;43896;48.178;11.578;2022-09-09T07:03:53;95655.34;;;17.78;65.05
58092;BME280;43896;48.178;11.578;2022-09-09T07:06:25;95659.84;;;17.91;65.22
58092;BME280;43896;48.178;11.578;2022-09-09T07:08:56;95640.66;;;17.55;65.50
58092;BME280;43896;48.178;11.578;2022-09-09T07:11:28;95593.88;;;17.14;65.67
58092;BME280;43896;48.178;11.578;2022-09-09T07:13:54;95621.00;;;17.70;64.88
58092;BME280;43896;48.178;11.578;2022-09-09T07:16:21;95601.16;;;17.66;63.88
58092;BME280;43896;48.178;11.578;2022-09-09T07:18:48;95703.19;;;18.18;63.46
58092;BME280;43896;48.178;11.578;2022-09-09T07:21:16;95662.34;;;17.59;65.61
58092;BME280;43896;48.178;11.578;2022-09-09T07:23:41;95707.53;;;17.52;67.30
58092;BME280;43896;48.178;11.578;2022-09-09T07:26:13;95701.81;;;17.22;69.30
58092;BME280;43896;48.178;11.578;2022-09-09T07:28:40;95687.88;;;17.06;71.33
58092;BME280;43896;48.178;11.578;2022-09-09T07:31:08;95715.53;;;17.52;69.32
58092;BME280;43896;48.178;11.578;2022-09-09T07:33:38;95705.69;;;17.79;68.48
58092;BME280;43896;48.178;11.578;2022-09-09T07:36:05;95706.13;;;17.96;68.07
58092;BME280;43896;48.178;11.578;2022-09-09T07:38:32;95671.31;;;17.85;67.87
58092;BME280;43896;48.178;11.578;2022-09-09T07:41:05;95670.88;;;17.94;67.93
58092;BME280;43896;48.178;11.578;2022-09-09T07:43:32;95707.06;;;18.22;67.44
58092;BME280;43896;48.178;11.578;2022-09-09T07:45:59;95652.06;;;17.89;67.97
58092;BME280;43896;48.178;11.578;2022-09-09T07:48:26;95674.19;;;17.90;69.06
58092;BME280;43896;48.178;11.578;2022-09-09T07:50:52;95701.13;;;18.13;67.02
58092;BME280;43896;48.178;11.578;2022-09-09T07:53:17;95670.88;;;17.94;66.82
58092;BME280;43896;48.178;11.578;2022-09-09T07:55:44;95700.09;;;18.21;67.35
58092;BME280;43896;48.178;11.578;2022-09-09T07:58:10;95716.72;;;18.03;68.73
58092;BME280;43896;48.178;11.578;2022-09-09T08:00:35;95695.47;;;17.96;69.31
58092;BME280;43896;48.178;11.578;2022-09-09T08:03:01;95668.66;;;17.91;69.57
58092;BME280;43896;48.178;11.578;2022-09-09T08:05:27;95721.78;;;18.38;69.25
58092;BME280;43896;48.178;11.578;2022-09-09T08:07:53;95717.75;;;18.15;69.52
58092;BME280;43896;48.178;11.578;2022-09-09T08:10:18;95680.69;;;18.07;68.12
58092;BME280;43896;48.178;11.578;2022-09-09T08:12:44;95722.75;;;18.50;67.68
58092;BME280;43896;48.178;11.578;2022-09-09T08:15:10;95694.75;;;18.34;67.19
58092;BME280;43896;48.178;11.578;2022-09-09T08:17:36;95722.72;;;18.57;67.13
58092;BME280;43896;48.178;11.578;2022-09-09T08:20:03;95709.25;;;18.39;68.52
58092;BME280;43896;48.178;11.578;2022-09-09T08:22:30;95705.38;;;18.41;68.39
58092;BME280;43896;48.178;11.578;2022-09-09T08:24:59;95751.59;;;18.60;68.77
58092;BME280;43896;48.178;11.578;2022-09-09T08:27:31;95712.66;;;17.94;69.35
58092;BME280;43896;48.178;11.578;2022-09-09T08:29:58;95758.06;;;17.86;72.28
58092;BME280;43896;48.178;11.578;2022-09-09T08:32:24;95729.81;;;17.38;73.89
58092;BME280;43896;48.178;11.578;2022-09-09T08:34:51;95680.34;;;17.43;72.59
58092;BME280;43896;48.178;11.578;2022-09-09T08:37:16;95664.34;;;17.84;70.79
58092;BME280;43896;48.178;11.578;2022-09-09T08:39:42;95717.56;;;17.90;71.63
58092;BME280;43896;48.178;11.578;2022-09-09T08:47:54;95728.81;;;17.52;74.71
58092;BME280;43896;48.178;11.578;2022-09-09T08:50:37;95762.56;;;17.72;75.43
58092;BME280;43896;48.178;11.578;2022-09-09T08:55:43;95723.69;;;17.77;74.36
58092;BME280;43896;48.178;11.578;2022-09-09T08:58:14;95693.84;;;17.55;74.57
58092;BME280;43896;48.178;11.578;2022-09-09T09:03:47;95745.19;;;17.96;74.01
58092;BME280;43896;48.178;11.578;2022-09-09T09:09:03;95753.81;;;17.91;74.22
58092;BME280;43896;48.178;11.578;2022-09-09T09:11:36;95687.09;;;17.53;74.81
58092;BME280;43896;48.178;11.578;2022-09-09T09:14:08;95703.44;;;17.43;74.49
58092;BME280;43896;48.178;11.578;2022-09-09T09:16:45;95747.84;;;18.09;73.29
58092;BME280;43896;48.178;11.578;2022-09-09T09:19:14;95742.00;;;18.52;71.00
58092;BME280;43896;48.178;11.578;2022-09-09T09:21:50;95693.34;;;18.18;71.18
58092;BME280;43896;48.178;11.578;2022-09-09T09:26:44;95729.22;;;18.03;71.83
58092;BME280;43896;48.178;11.578;2022-09-09T09:29:14;95684.38;;;18.06;70.51
58092;BME280;43896;48.178;11.578;2022-09-09T09:31:51;95704.34;;;18.35;71.65
58092;BME280;43896;48.178;11.578;2022-09-09T09:34:17;95696.88;;;17.92;71.93
58092;BME280;43896;48.178;11.578;2022-09-09T09:36:53;95748.50;;;18.63;70.36
58092;BME280;43896;48.178;11.578;2022-09-09T09:39:24;95742.00;;;18.46;71.37
58092;BME280;43896;48.178;11.578;2022-09-09T09:41:51;95763.66;;;18.69;69.97
58092;BME280;43896;48.178;11.578;2022-09-09T09:44:30;95747.34;;;18.98;69.06
58092;BME280;43896;48.178;11.578;2022-09-09T09:47:08;95754.06;;;19.14;68.70
58092;BME280;43896;48.178;11.578;2022-09-09T09:49:36;95710.06;;;18.91;68.03
58092;BME280;43896;48.178;11.578;2022-09-09T09:52:06;95760.19;;;19.14;68.01
58092;BME280;43896;48.178;11.578;2022-09-09T09:54:41;95722.56;;;18.97;64.72
58092;BME280;43896;48.178;11.578;2022-09-09T09:57:17;95746.50;;;19.04;64.40
58092;BME280;43896;48.178;11.578;2022-09-09T09:59:43;95738.19;;;18.87;63.37
58092;BME280;43896;48.178;11.578;2022-09-09T10:02:22;95760.03;;;18.50;64.15
58092;BME280;43896;48.178;11.578;2022-09-09T10:05:26;95757.22;;;18.25;64.21
58092;BME280;43896;48.178;11.578;2022-09-09T10:10:36;95763.63;;;18.76;62.75
58092;BME280;43896;48.178;11.578;2022-09-09T10:13:15;95734.94;;;18.71;62.44
58092;BME280;43896;48.178;11.578;2022-09-09T10:18:46;95753.97;;;18.88;62.87
58092;BME280;43896;48.178;11.578;2022-09-09T10:24:23;95746.94;;;19.01;62.77
58092;BME280;43896;48.178;11.578;2022-09-09T10:27:16;95751.13;;;18.83;64.19
58092;BME280;43896;48.178;11.578;2022-09-09T10:32:45;95760.91;;;18.31;66.60
58092;BME280;43896;48.178;11.578;2022-09-09T10:35:25;95765.06;;;17.87;67.47
58092;BME280;43896;48.178;11.578;2022-09-09T10:38:13;95746.00;;;18.03;66.76
58092;BME280;43896;48.178;11.578;2022-09-09T10:40:42;95752.16;;;18.04;66.76
58092;BME280;43896;48.178;11.578;2022-09-09T10:48:36;95731.84;;;18.29;66.44
58092;BME280;43896;48.178;11.578;2022-09-09T10:54:15;95753.13;;;18.23;66.96
58092;BME280;43896;48.178;11.578;2022-09-09T10:56:49;95759.09;;;18.90;64.84
58092;BME280;43896;48.178;11.578;2022-09-09T10:59:26;95743.38;;;19.14;62.48
58092;BME280;43896;48.178;11.578;2022-09-09T11:02:17;95753.44;;;19.11;62.71
58092;BME280;43896;48.178;11.578;2022-09-09T11:04:55;95751.28;;;18.95;63.25
58092;BME280;43896;48.178;11.578;2022-09-09T11:07:34;95747.97;;;19.00;63.48
58092;BME280;43896;48.178;11.578;2022-09-09T11:10:11;95748.47;;;18.83;63.61
58092;BME280;43896;48.178;11.578;2022-09-09T11:12:39;95737.53;;;18.98;63.22
58092;BME280;43896;48.178;11.578;2022-09-09T11:15:20;95744.66;;;19.04;62.89
58092;BME280;43896;48.178;11.578;2022-09-09T11:18:00;95724.06;;;19.18;63.87
58092;BME280;43896;48.178;11.578;2022-09-09T11:20:26;95712.59;;;19.18;63.34
58092;BME280;43896;48.178;11.578;2022-09-09T11:22:58;95747.00;;;20.08;58.99
58092;BME280;43896;48.178;11.578;2022-09-09T11:25:35;95746.44;;;20.61;57.76
58092;BME280;43896;48.178;11.578;2022-09-09T11:28:26;95712.03;;;19.66;59.34
58092;BME280;43896;48.178;11.578;2022-09-09T11:36:38;95750.44;;;20.15;57.23
58092;BME280;43896;48.178;11.578;2022-09-09T11:42:06;95710.78;;;19.94;57.91
58092;BME280;43896;48.178;11.578;2022-09-09T11:44:32;95737.84;;;21.39;56.56
58092;BME280;43896;48.178;11.578;2022-09-09T11:46:57;95672.25;;;20.94;54.47
58092;BME280;43896;48.178;11.578;2022-09-09T11:49:41;95725.94;;;21.53;54.17
58092;BME280;43896;48.178;11.578;2022-09-09T11:52:12;95732.25;;;21.82;52.06
58092;BME280;43896;48.178;11.578;2022-09-09T11:54:47;95738.50;;;21.52;53.54
58092;BME280;43896;48.178;11.578;2022-09-09T11:57:26;95721.41;;;21.35;53.43
58092;BME280;43896;48.178;11.578;2022-09-09T11:59:55;95686.94;;;21.03;53.34
58092;BME280;43896;48.178;11.578;2022-09-09T12:02:27;95738.22;;;21.12;53.80
58092;BME280;43896;48.178;11.578;2022-09-09T12:05:00;95736.13;;;21.14;52.83
58092;BME280;43896;48.178;11.578;2022-09-09T12:07:51;95737.81;;;20.96;53.12
58092;BME280;43896;48.178;11.578;2022-09-09T12:10:31;95740.44;;;20.29;54.84
58092;BME280;43896;48.178;11.578;2022-09-09T12:13:18;95704.91;;;19.60;55.76
58092;BME280;43896;48.178;11.578;2022-09-09T12:16:01;95691.72;;;19.90;55.05
58092;BME280;43896;48.178;11.578;2022-09-09T12:18:35;95727.06;;;19.60;56.88
58092;BME280;43896;48.178;11.578;2022-09-09T12:23:44;95737.84;;;19.72;58.48
58092;BME280;43896;48.178;11.578;2022-09-09T12:29:29;95733.97;;;20.18;56.33
58092;BME280;43896;48.178;11.578;2022-09-09T12:32:03;95733.94;;;19.75;56.97
58092;BME280;43896;48.178;11.578;2022-09-09T12:37:15;95696.16;;;19.78;56.77
58092;BME280;43896;48.178;11.578;2022-09-09T12:40:18;95692.44;;;19.54;57.61
58092;BME280;43896;48.178;11.578;2022-09-09T12:42:44;95681.22;;;19.45;57.82
58092;BME280;43896;48.178;11.578;2022-09-09T12:45:21;95725.31;;;19.47;58.62
58092;BME280;43896;48.178;11.578;2022-09-09T12:47:52;95666.28;;;19.62;57.72
58092;BME280;43896;48.178;11.578;2022-09-09T12:50:42;95715.63;;;20.03;57.04
58092;BME280;43896;48.178;11.578;2022-09-09T12:53:14;95702.53;;;20.39;55.76
58092;BME280;43896;48.178;11.578;2022-09-09T12:56:00;95676.53;;;20.46;55.15
58092;BME280;43896;48.178;11.578;2022-09-09T12:58:29;95667.69;;;20.46;55.90
58092;BME280;43896;48.178;11.578;2022-09-09T13:00:58;95666.53;;;19.86;57.33
58092;BME280;43896;48.178;11.578;2022-09-09T13:03:25;95658.72;;;19.59;57.80
58092;BME280;43896;48.178;11.578;2022-09-09T13:05:51;95682.56;;;20.04;57.19
58092;BME280;43896;48.178;11.578;2022-09-09T13:08:18;95679.22;;;20.09;56.15
58092;BME280;43896;48.178;11.578;2022-09-09T13:10:51;95695.97;;;19.98;57.72
58092;BME280;43896;48.178;11.578;2022-09-09T13:13:23;95694.50;;;19.52;59.06
58092;BME280;43896;48.178;11.578;2022-09-09T13:15:52;95641.28;;;19.38;58.32
58092;BME280;43896;48.178;11.578;2022-09-09T13:18:21;95629.31;;;19.22;58.98
58092;BME280;43896;48.178;11.578;2022-09-09T13:20:48;95689.81;;;19.97;58.29
58092;BME280;43896;48.178;11.578;2022-09-09T13:23:16;95621.28;;;18.97;59.14
58092;BME280;43896;48.178;11.578;2022-09-09T13:25:54;95686.09;;;19.23;60.25
58092;BME280;43896;48.178;11.578;2022-09-09T13:28:22;95662.44;;;19.58;59.17
58092;BME280;43896;48.178;11.578;2022-09-09T13:31:01;95642.28;;;19.88;58.22
58092;BME280;43896;48.178;11.578;2022-09-09T13:33:37;95661.78;;;19.63;59.11
58092;BME280;43896;48.178;11.578;2022-09-09T13:36:05;95613.38;;;19.59;58.35
58092;BME280;43896;48.178;11.578;2022-09-09T13:38:37;95632.53;;;19.75;58.80
58092;BME280;43896;48.178;11.578;2022-09-09T13:41:07;95662.22;;;19.60;59.62
58092;BME280;43896;48.178;11.578;2022-09-09T13:43:44;95628.56;;;19.59;59.38
58092;BME280;43896;48.178;11.578;2022-09-09T13:46:38;95661.09;;;20.11;59.16
58092;BME280;43896;48.178;11.578;2022-09-09T13:51:44;95654.34;;;20.46;56.36
58092;BME280;43896;48.178;11.578;2022-09-09T13:54:13;95650.28;;;20.06;57.06
58092;BME280;43896;48.178;11.578;2022-09-09T13:56:40;95634.66;;;19.41;59.13
58092;BME280;43896;48.178;11.578;2022-09-09T13:59:12;95657.31;;;19.57;58.34
58092;BME280;43896;48.178;11.578;2022-09-09T14:01:37;95648.56;;;19.49;57.87
58092;BME280;43896;48.178;11.578;2022-09-09T14:04:03;95632.03;;;18.77;59.71
58092;BME280;43896;48.178;11.578;2022-09-09T14:06:29;95621.94;;;18.54;60.68
58092;BME280;43896;48.178;11.578;2022-09-09T14:08:54;95627.38;;;18.72;61.20
58092;BME280;43896;48.178;11.578;2022-09-09T14:11:20;95650.41;;;18.60;60.92
58092;BME280;43896;48.178;11.578;2022-09-09T14:13:46;95642.13;;;18.68;60.38
58092;BME280;43896;48.178;11.578;2022-09-09T14:16:12;95654.56;;;18.43;61.01
58092;BME280;43896;48.178;11.578;2022-09-09T14:18:37;95658.91;;;18.30;61.90
58092;BME280;43896;48.178;11.578;2022-09-09T14:21:04;95662.56;;;18.81;60.85
58092;BME280;43896;48.178;11.578;2022-09-09T14:23:29;95643.31;;;18.34;61.89
58092;BME280;43896;48.178;11.578;2022-09-09T14:25:55;95666.66;;;18.39;62.58
58092;BME280;43896;48.178;11.578;2022-09-09T14:28:21;95600.66;;;18.09;62.14
58092;BME280;43896;48.178;11.578;2022-09-09T14:30:46;95648.09;;;18.70;61.61
58092;BME280;43896;48.178;11.578;2022-09-09T14:33:13;95672.25;;;19.07;60.28
58092;BME280;43896;48.178;11.578;2022-09-09T14:35:39;95655.03;;;18.71;60.88
58092;BME280;43896;48.178;11.578;2022-09-09T14:38:07;95655.56;;;18.48;61.56
58092;BME280;43896;48.178;11.578;2022-09-09T14:40:34;95675.72;;;18.83;60.94
58092;BME280;43896;48.178;11.578;2022-09-09T14:43:00;95635.91;;;18.43;61.37